createdAt,value
2022-07-28T00:02:06.024Z,27.30
2022-07-28T00:04:34.696Z,27.30
2022-07-28T00:07:03.974Z,27.30
2022-07-28T00:09:31.947Z,27.30
2022-07-28T00:11:59.866Z,27.30
2022-07-28T00:14:27.967Z,27.30
2022-07-28T00:16:55.941Z,27.30
2022-07-28T00:19:23.968Z,27.30
2022-07-28T00:21:51.910Z,27.30
2022-07-28T00:24:21.193Z,27.30
2022-07-28T00:26:49.076Z,27.30
2022-07-28T00:29:17.005Z,27.30
2022-07-28T00:31:44.998Z,27.30
2022-07-28T00:34:13.429Z,27.30
2022-07-28T00:36:41.535Z,27.30
2022-07-28T00:39:09.447Z,27.30
2022-07-28T00:41:38.709Z,27.30
2022-07-28T00:44:07.770Z,27.30
2022-07-28T00:46:36.645Z,27.30
2022-07-28T00:49:05.312Z,27.30
2022-07-28T00:51:33.443Z,27.30
2022-07-28T00:54:01.395Z,27.30
2022-07-28T00:56:29.455Z,27.30
2022-07-28T00:58:58.682Z,27.30
2022-07-28T01:01:26.630Z,27.30
2022-07-28T01:03:57.026Z,27.30
2022-07-28T01:06:40.795Z,27.30
2022-07-28T01:09:19.253Z,27.30
2022-07-28T01:12:02.490Z,27.30
2022-07-28T01:14:39.444Z,27.30
2022-07-28T01:17:13.030Z,27.30
2022-07-28T01:19:47.408Z,27.30
2022-07-28T01:22:21.690Z,27.30
2022-07-28T01:24:57.419Z,27.30
2022-07-28T01:27:46.260Z,27.20
2022-07-28T01:30:33.130Z,27.30
2022-07-28T01:33:05.046Z,27.20
2022-07-28T01:35:38.968Z,27.20
2022-07-28T01:38:09.879Z,27.30
2022-07-28T01:40:40.337Z,27.20
2022-07-28T01:43:13.475Z,27.20
2022-07-28T01:45:44.599Z,27.20
2022-07-28T01:48:15.388Z,27.20
2022-07-28T01:50:44.510Z,27.20
2022-07-28T01:53:14.507Z,27.30
2022-07-28T01:55:45.112Z,27.20
2022-07-28T01:58:15.170Z,27.20
2022-07-28T02:00:49.575Z,27.20
2022-07-28T02:03:19.200Z,27.20
2022-07-28T02:05:50.227Z,27.20
2022-07-28T02:08:21.433Z,27.20
2022-07-28T02:11:05.060Z,27.20
2022-07-28T02:13:38.722Z,27.20
2022-07-28T02:16:11.393Z,27.20
2022-07-28T02:18:40.722Z,27.20
2022-07-28T02:21:10.106Z,27.20
2022-07-28T02:23:40.199Z,27.20
2022-07-28T02:26:12.057Z,27.20
2022-07-28T02:28:43.478Z,27.20
2022-07-28T02:31:18.574Z,27.20
2022-07-28T02:33:58.704Z,27.20
2022-07-28T02:36:31.444Z,27.20
2022-07-28T02:39:03.689Z,27.20
2022-07-28T02:41:34.466Z,27.20
2022-07-28T02:44:07.621Z,27.20
2022-07-28T02:46:45.240Z,27.20
2022-07-28T02:49:17.391Z,27.20
2022-07-28T02:51:47.320Z,27.10
2022-07-28T02:54:18.160Z,27.20
2022-07-28T02:56:53.908Z,27.20
2022-07-28T02:59:22.851Z,27.10
2022-07-28T03:01:53.004Z,27.10
2022-07-28T03:04:42.079Z,27.10
2022-07-28T03:07:10.912Z,27.10
2022-07-28T03:09:41.574Z,27.20
2022-07-28T03:12:10.173Z,27.10
2022-07-28T03:14:38.245Z,27.10
2022-07-28T03:17:09.494Z,27.10
2022-07-28T03:19:37.604Z,27.10
2022-07-28T03:22:06.187Z,27.10
2022-07-28T03:24:39.625Z,27.10
2022-07-28T03:27:14.512Z,27.10
2022-07-28T03:29:44.839Z,27.10
2022-07-28T03:32:14.375Z,27.10
2022-07-28T03:34:42.386Z,27.10
2022-07-28T03:37:13.825Z,27.10
2022-07-28T03:39:48.131Z,27.10
2022-07-28T03:42:17.836Z,27.10
2022-07-28T03:44:47.649Z,27.10
2022-07-28T03:47:21.380Z,27.10
2022-07-28T03:49:49.289Z,27.10
2022-07-28T03:52:17.257Z,27.10
2022-07-28T03:54:45.640Z,27.10
2022-07-28T03:57:13.802Z,27.10
2022-07-28T03:59:42.049Z,27.00
2022-07-28T04:02:10.045Z,27.10
2022-07-28T04:04:39.359Z,27.00
2022-07-28T04:07:07.272Z,27.10
2022-07-28T04:09:35.962Z,27.10
2022-07-28T04:12:03.896Z,27.10
2022-07-28T04:14:31.872Z,27.00
2022-07-28T04:16:59.893Z,27.00
2022-07-28T04:19:27.819Z,27.00
2022-07-28T04:21:57.157Z,27.00
2022-07-28T04:24:25.035Z,27.10
2022-07-28T04:26:53.190Z,27.00
2022-07-28T04:29:23.370Z,27.00
2022-07-28T04:31:55.356Z,27.00
2022-07-28T04:34:24.555Z,27.00
2022-07-28T04:36:53.057Z,27.00
2022-07-28T04:39:22.318Z,27.00
2022-07-28T04:41:50.920Z,27.00
2022-07-28T04:44:18.841Z,27.00
2022-07-28T04:46:46.921Z,27.00
2022-07-28T04:49:15.182Z,27.00
2022-07-28T04:51:48.329Z,27.00
2022-07-28T04:54:16.792Z,27.00
2022-07-28T04:56:46.485Z,27.00
2022-07-28T04:59:15.993Z,27.00
2022-07-28T05:01:44.733Z,27.00
2022-07-28T05:04:13.052Z,27.00
2022-07-28T05:06:41.188Z,27.00
2022-07-28T05:09:09.283Z,27.00
2022-07-28T05:11:37.247Z,27.00
2022-07-28T05:14:06.533Z,27.00
2022-07-28T05:16:40.515Z,27.00
2022-07-28T05:19:08.463Z,27.00
2022-07-28T05:21:36.414Z,26.90
2022-07-28T05:24:04.609Z,27.00
2022-07-28T05:26:32.526Z,26.90
2022-07-28T05:29:00.501Z,26.90
2022-07-28T05:31:29.848Z,26.90
2022-07-28T05:33:57.918Z,26.90
2022-07-28T05:36:25.843Z,26.90
2022-07-28T05:38:53.986Z,26.90
2022-07-28T05:41:21.897Z,26.90
2022-07-28T05:43:49.792Z,26.90
2022-07-28T05:46:17.749Z,26.90
2022-07-28T05:48:47.381Z,26.90
2022-07-28T05:51:15.429Z,26.90
2022-07-28T05:53:43.340Z,26.90
2022-07-28T05:56:11.315Z,26.90
2022-07-28T05:58:39.243Z,26.90
2022-07-28T06:01:07.216Z,26.90
2022-07-28T06:03:41.472Z,26.90
2022-07-28T06:06:15.978Z,26.90
2022-07-28T06:08:45.615Z,26.90
2022-07-28T06:11:22.608Z,26.90
2022-07-28T06:13:51.994Z,26.90
2022-07-28T06:16:21.082Z,26.90
2022-07-28T06:18:49.248Z,26.90
2022-07-28T06:21:18.589Z,26.90
2022-07-28T06:23:46.584Z,26.90
2022-07-28T06:26:14.473Z,26.90
2022-07-28T06:28:42.417Z,26.80
2022-07-28T06:31:10.356Z,26.80
2022-07-28T06:33:38.419Z,26.80
2022-07-28T06:36:06.726Z,26.80
2022-07-28T06:38:35.957Z,26.80
2022-07-28T06:41:03.845Z,26.80
2022-07-28T06:43:38.326Z,26.80
2022-07-28T06:46:06.648Z,26.80
2022-07-28T06:48:37.585Z,26.80
2022-07-28T06:51:05.899Z,26.80
2022-07-28T06:53:35.186Z,26.80
2022-07-28T06:56:04.751Z,26.80
2022-07-28T06:58:33.290Z,26.80
2022-07-28T07:01:02.546Z,26.80
2022-07-28T07:03:30.615Z,26.80
2022-07-28T07:05:58.533Z,26.80
2022-07-28T07:08:26.554Z,26.80
2022-07-28T07:10:56.893Z,26.80
2022-07-28T07:13:24.820Z,26.80
2022-07-28T07:15:52.973Z,26.80
2022-07-28T07:18:21.017Z,26.80
2022-07-28T07:20:49.007Z,26.80
2022-07-28T07:23:16.873Z,26.80
2022-07-28T07:25:44.809Z,26.80
2022-07-28T07:28:14.047Z,26.80
2022-07-28T07:30:41.955Z,26.80
2022-07-28T07:33:10.486Z,26.80
2022-07-28T07:35:38.902Z,26.80
2022-07-28T07:38:06.929Z,26.80
2022-07-28T07:40:36.165Z,26.80
2022-07-28T07:43:04.079Z,26.80
2022-07-28T07:45:34.336Z,26.80
2022-07-28T07:48:02.686Z,26.80
2022-07-28T07:50:31.020Z,26.80
2022-07-28T07:52:58.962Z,26.70
2022-07-28T07:55:27.035Z,26.70
2022-07-28T07:58:02.294Z,26.70
2022-07-28T08:00:30.460Z,26.80
2022-07-28T08:03:00.422Z,26.80
2022-07-28T08:05:35.007Z,26.70
2022-07-28T08:08:04.957Z,26.70
2022-07-28T08:10:33.077Z,26.80
2022-07-28T08:13:01.198Z,26.70
2022-07-28T08:15:29.206Z,26.70
2022-07-28T08:17:57.191Z,26.70
2022-07-28T08:20:26.804Z,26.70
2022-07-28T08:22:56.845Z,26.70
2022-07-28T08:25:26.094Z,26.70
2022-07-28T08:27:54.044Z,26.70
2022-07-28T08:30:26.257Z,26.70
2022-07-28T08:32:57.066Z,26.70
2022-07-28T08:35:33.597Z,26.70
2022-07-28T08:38:03.327Z,26.70
2022-07-28T08:40:32.783Z,26.70
2022-07-28T08:43:04.754Z,26.70
2022-07-28T08:45:35.421Z,26.70
2022-07-28T08:48:08.555Z,26.70
2022-07-28T08:50:39.013Z,26.70
2022-07-28T08:53:08.189Z,26.70
2022-07-28T08:55:37.276Z,26.70
2022-07-28T08:58:05.611Z,26.70
2022-07-28T09:00:33.853Z,26.70
2022-07-28T09:03:04.580Z,26.70
2022-07-28T09:05:34.043Z,26.70
2022-07-28T09:08:03.876Z,26.70
2022-07-28T09:10:32.119Z,26.70
2022-07-28T09:13:00.031Z,26.70
2022-07-28T09:15:28.321Z,26.70
2022-07-28T09:17:56.639Z,26.70
2022-07-28T09:20:25.248Z,26.70
2022-07-28T09:22:58.197Z,26.70
2022-07-28T09:25:27.816Z,26.70
2022-07-28T09:27:56.175Z,26.70
2022-07-28T09:30:31.480Z,26.70
2022-07-28T09:33:42.929Z,26.70
2022-07-28T09:36:15.705Z,26.70
2022-07-28T09:38:43.780Z,26.70
2022-07-28T09:41:13.281Z,26.70
2022-07-28T09:43:43.310Z,26.70
2022-07-28T09:46:12.450Z,26.70
2022-07-28T09:48:56.499Z,26.70
2022-07-28T09:51:26.958Z,26.60
2022-07-28T09:54:06.559Z,26.60
2022-07-28T09:56:36.026Z,26.60
2022-07-28T09:59:04.430Z,26.60
2022-07-28T10:01:35.266Z,26.60
2022-07-28T10:04:05.570Z,26.60
2022-07-28T10:06:35.669Z,26.60
2022-07-28T10:09:06.584Z,26.60
2022-07-28T10:11:41.194Z,26.60
2022-07-28T10:14:09.943Z,26.60
2022-07-28T10:16:46.836Z,26.60
2022-07-28T10:19:14.766Z,26.60
2022-07-28T10:21:45.133Z,26.60
2022-07-28T10:24:21.049Z,26.60
2022-07-28T10:26:52.507Z,26.60
2022-07-28T10:29:23.138Z,26.60
2022-07-28T10:31:54.174Z,26.60
2022-07-28T10:34:24.921Z,26.60
2022-07-28T10:36:55.581Z,26.60
2022-07-28T10:39:26.729Z,26.60
2022-07-28T10:41:57.231Z,26.60
2022-07-28T10:44:25.906Z,26.60
2022-07-28T10:46:54.463Z,26.60
2022-07-28T10:49:22.778Z,26.60
2022-07-28T10:52:11.744Z,26.60
2022-07-28T10:54:49.344Z,26.60
2022-07-28T10:57:19.328Z,26.60
2022-07-28T11:00:25.757Z,26.60
2022-07-28T11:02:58.688Z,26.60
2022-07-28T11:05:28.650Z,26.60
2022-07-28T11:07:56.858Z,26.50
2022-07-28T11:10:25.020Z,26.50
2022-07-28T11:12:55.724Z,26.50
2022-07-28T11:15:28.175Z,26.50
2022-07-28T11:18:01.979Z,26.50
2022-07-28T11:21:07.875Z,26.50
2022-07-28T11:23:48.563Z,26.50
2022-07-28T11:26:38.936Z,26.50
2022-07-28T11:29:21.975Z,26.50
2022-07-28T11:32:13.839Z,26.50
2022-07-28T11:35:09.769Z,26.50
2022-07-28T11:38:09.021Z,26.50
2022-07-28T11:40:38.765Z,26.50
2022-07-28T11:43:37.395Z,26.50
2022-07-28T11:46:31.577Z,26.50
2022-07-28T11:49:26.048Z,26.50
2022-07-28T11:52:20.998Z,26.50
2022-07-28T11:54:57.223Z,26.50
2022-07-28T11:57:28.648Z,26.50
2022-07-28T11:59:59.808Z,26.50
2022-07-28T12:02:31.759Z,26.50
2022-07-28T12:05:06.678Z,26.50
2022-07-28T12:07:37.446Z,26.50
2022-07-28T12:13:13.541Z,26.50
2022-07-28T12:15:41.685Z,26.50
2022-07-28T12:18:14.425Z,26.50
2022-07-28T12:20:49.961Z,26.50
2022-07-28T12:23:17.909Z,26.50
2022-07-28T12:25:47.659Z,26.50
2022-07-28T12:28:17.403Z,26.50
2022-07-28T12:30:46.190Z,26.50
2022-07-28T12:33:20.581Z,26.50
2022-07-28T12:35:51.371Z,26.50
2022-07-28T12:38:22.023Z,26.50
2022-07-28T12:40:50.190Z,26.50
2022-07-28T12:43:21.569Z,26.50
2022-07-28T12:45:50.018Z,26.50
2022-07-28T12:48:19.859Z,26.50
2022-07-28T12:50:48.661Z,26.50
2022-07-28T12:53:18.049Z,26.50
2022-07-28T12:55:46.017Z,26.50
2022-07-28T12:58:24.637Z,26.50
2022-07-28T13:00:53.476Z,26.50
2022-07-28T13:03:25.177Z,26.50
2022-07-28T13:06:05.798Z,26.50
2022-07-28T13:08:44.567Z,26.50
2022-07-28T13:11:42.112Z,26.50
2022-07-28T13:14:02.560Z,26.50
2022-07-28T13:16:30.565Z,26.50
2022-07-28T13:19:03.836Z,26.50
2022-07-28T13:21:38.733Z,26.50
2022-07-28T13:24:07.094Z,26.50
2022-07-28T13:26:35.033Z,26.50
2022-07-28T13:29:03.145Z,26.50
2022-07-28T13:31:40.777Z,26.50
2022-07-28T13:34:11.587Z,26.50
2022-07-28T13:36:40.011Z,26.50
2022-07-28T13:39:10.399Z,26.50
2022-07-28T13:41:56.351Z,26.50
2022-07-28T13:44:26.094Z,26.50
2022-07-28T13:46:55.444Z,26.50
2022-07-28T13:49:27.176Z,26.50
2022-07-28T13:51:55.324Z,26.50
2022-07-28T13:54:23.503Z,26.50
2022-07-28T13:56:52.113Z,26.50
2022-07-28T13:59:24.021Z,26.50
2022-07-28T14:01:55.307Z,26.50
2022-07-28T14:04:25.203Z,26.50
2022-07-28T14:06:54.848Z,26.50
2022-07-28T14:09:23.032Z,26.50
2022-07-28T14:11:53.736Z,26.50
2022-07-28T14:14:23.870Z,26.50
2022-07-28T14:16:54.456Z,26.50
2022-07-28T14:19:38.449Z,26.50
2022-07-28T14:22:12.888Z,26.50
2022-07-28T14:24:41.548Z,26.50
2022-07-28T14:27:10.342Z,26.40
2022-07-28T14:29:38.861Z,26.50
2022-07-28T14:32:07.213Z,26.50
2022-07-28T14:34:36.526Z,26.50
2022-07-28T14:37:08.560Z,26.50
2022-07-28T14:39:37.070Z,26.50
2022-07-28T14:42:05.562Z,26.50
2022-07-28T14:44:33.519Z,26.50
2022-07-28T14:47:01.495Z,26.50
2022-07-28T14:49:29.525Z,26.50
2022-07-28T14:51:59.370Z,26.50
2022-07-28T14:54:28.057Z,26.50
2022-07-28T14:56:56.286Z,26.50
2022-07-28T14:59:24.343Z,26.50
2022-07-28T15:01:52.407Z,26.50
2022-07-28T15:04:20.521Z,26.50
2022-07-28T15:06:48.424Z,26.50
2022-07-28T15:09:17.675Z,26.50
2022-07-28T15:11:47.286Z,26.50
2022-07-28T15:14:16.026Z,26.50
2022-07-28T15:16:48.318Z,26.50
2022-07-28T15:19:16.540Z,26.50
2022-07-28T15:21:47.360Z,26.50
2022-07-28T15:24:17.541Z,26.50
2022-07-28T15:26:45.950Z,26.50
2022-07-28T15:29:13.878Z,26.50
2022-07-28T15:31:42.661Z,26.50
2022-07-28T15:34:16.800Z,26.60
2022-07-28T15:36:45.039Z,26.50
2022-07-28T15:39:14.831Z,26.60
2022-07-28T15:41:45.558Z,26.60
2022-07-28T15:44:16.335Z,26.60
2022-07-28T15:46:44.932Z,26.60
2022-07-28T15:49:14.829Z,26.60
2022-07-28T15:51:42.827Z,26.60
2022-07-28T15:54:10.919Z,26.60
2022-07-28T15:56:39.021Z,26.60
2022-07-28T15:59:08.516Z,26.60
2022-07-28T16:01:37.409Z,26.60
2022-07-28T16:04:07.331Z,26.60
2022-07-28T16:06:53.206Z,26.60
2022-07-28T16:09:21.936Z,26.60
2022-07-28T16:11:50.620Z,26.60
2022-07-28T16:14:20.023Z,26.60
2022-07-28T16:16:48.025Z,26.60
2022-07-28T16:19:38.529Z,26.60
2022-07-28T16:22:04.218Z,26.60
2022-07-28T16:24:32.181Z,26.60
2022-07-28T16:27:00.162Z,26.60
2022-07-28T16:29:29.621Z,26.60
2022-07-28T16:31:57.569Z,26.60
2022-07-28T16:34:25.521Z,26.60
2022-07-28T16:36:53.848Z,26.60
2022-07-28T16:39:22.194Z,26.60
2022-07-28T16:41:50.376Z,26.60
2022-07-28T16:44:19.159Z,26.60
2022-07-28T16:46:48.675Z,26.60
2022-07-28T16:49:17.087Z,26.60
2022-07-28T16:51:45.009Z,26.60
2022-07-28T16:54:14.110Z,26.60
2022-07-28T16:56:42.833Z,26.60
2022-07-28T16:59:10.765Z,26.70
2022-07-28T17:01:43.512Z,26.60
2022-07-28T17:04:15.724Z,26.60
2022-07-28T17:06:43.969Z,26.60
2022-07-28T17:09:12.213Z,26.60
2022-07-28T17:11:41.666Z,26.70
2022-07-28T17:14:09.615Z,26.70
2022-07-28T17:16:37.723Z,26.70
2022-07-28T17:19:06.278Z,26.70
2022-07-28T17:21:36.073Z,26.70
2022-07-28T17:24:04.230Z,26.70
2022-07-28T17:29:20.934Z,26.70
2022-07-28T17:31:49.645Z,26.70
2022-07-28T17:34:17.994Z,26.70
2022-07-28T17:36:48.086Z,26.70
2022-07-28T17:39:15.986Z,26.70
2022-07-28T17:41:43.893Z,26.70
2022-07-28T17:44:12.014Z,26.70
2022-07-28T17:46:40.170Z,26.70
2022-07-28T17:49:08.947Z,26.70
2022-07-28T17:51:37.540Z,26.70
2022-07-28T17:54:07.075Z,26.70
2022-07-28T17:56:37.298Z,26.70
2022-07-28T17:59:06.042Z,26.70
2022-07-28T18:01:34.094Z,26.70
2022-07-28T18:04:02.264Z,26.70
2022-07-28T18:06:32.301Z,26.70
2022-07-28T18:09:06.148Z,26.70
2022-07-28T18:11:55.188Z,26.70
2022-07-28T18:14:25.488Z,26.70
2022-07-28T18:16:53.455Z,26.70
2022-07-28T18:19:21.506Z,26.70
2022-07-28T18:21:49.549Z,26.70
2022-07-28T18:24:18.269Z,26.70
2022-07-28T18:26:47.932Z,26.70
2022-07-28T18:29:15.910Z,26.80
2022-07-28T18:31:46.630Z,26.70
2022-07-28T18:34:16.402Z,26.70
2022-07-28T18:36:44.646Z,26.70
2022-07-28T18:39:12.680Z,26.80
2022-07-28T18:41:46.354Z,26.70
2022-07-28T18:44:17.831Z,26.70
2022-07-28T18:46:46.755Z,26.70
2022-07-28T18:49:14.939Z,26.80
2022-07-28T18:51:45.187Z,26.80
2022-07-28T18:54:14.215Z,26.70
2022-07-28T18:56:42.543Z,26.80
2022-07-28T18:59:10.452Z,26.80
2022-07-28T19:01:39.828Z,26.80
2022-07-28T19:04:08.084Z,26.80
2022-07-28T19:06:36.566Z,26.80
2022-07-28T19:09:04.996Z,26.80
2022-07-28T19:11:33.507Z,26.80
2022-07-28T19:14:02.077Z,26.80
2022-07-28T19:16:30.134Z,26.80
2022-07-28T19:18:59.468Z,26.80
2022-07-28T19:21:27.509Z,26.80
2022-07-28T19:23:55.646Z,26.80
2022-07-28T19:26:24.226Z,26.80
2022-07-28T19:28:52.577Z,26.80
2022-07-28T19:31:20.696Z,26.80
2022-07-28T19:33:48.775Z,26.80
2022-07-28T19:36:18.086Z,26.80
2022-07-28T19:38:46.097Z,26.80
2022-07-28T19:41:14.151Z,26.80
2022-07-28T19:43:42.352Z,26.80
2022-07-28T19:46:10.814Z,26.80
2022-07-28T19:48:39.791Z,26.80
2022-07-28T19:51:07.771Z,26.80
2022-07-28T19:53:38.019Z,26.80
2022-07-28T19:56:08.876Z,26.80
2022-07-28T19:58:37.047Z,26.80
2022-07-28T20:01:05.341Z,26.80
2022-07-28T20:04:00.784Z,26.80
2022-07-28T20:06:24.788Z,26.80
2022-07-28T20:08:56.838Z,26.80
2022-07-28T20:11:24.820Z,26.80
2022-07-28T20:13:52.850Z,26.80
2022-07-28T20:16:22.311Z,26.80
2022-07-28T20:18:50.401Z,26.80
2022-07-28T20:21:19.238Z,26.80
2022-07-28T20:23:47.190Z,26.80
2022-07-28T20:26:17.224Z,26.80
2022-07-28T20:28:51.420Z,26.80
2022-07-28T20:31:20.296Z,26.80
2022-07-28T20:33:48.762Z,26.80
2022-07-28T20:36:16.926Z,26.80
2022-07-28T20:38:45.643Z,26.80
2022-07-28T20:41:13.682Z,26.80
2022-07-28T20:43:43.046Z,26.80
2022-07-28T20:46:11.002Z,26.80
2022-07-28T20:48:39.088Z,26.80
2022-07-28T20:51:07.153Z,26.80
2022-07-28T20:53:37.327Z,26.80
2022-07-28T20:56:05.954Z,26.80
2022-07-28T20:58:33.958Z,26.80
2022-07-28T21:01:03.916Z,26.80
2022-07-28T21:03:31.845Z,26.80
2022-07-28T21:05:59.710Z,26.80
2022-07-28T21:08:27.855Z,26.80
2022-07-28T21:10:55.761Z,26.80
2022-07-28T21:13:23.749Z,26.80
2022-07-28T21:15:51.690Z,26.80
2022-07-28T21:18:20.942Z,26.80
2022-07-28T21:20:48.942Z,26.80
2022-07-28T21:23:18.167Z,26.80
2022-07-28T21:25:46.572Z,26.80
2022-07-28T21:28:31.918Z,26.80
2022-07-28T21:31:01.433Z,26.80
2022-07-28T21:33:30.795Z,26.80
2022-07-28T21:35:58.698Z,26.80
2022-07-28T21:38:26.633Z,26.80
2022-07-28T21:40:54.552Z,26.80
2022-07-28T21:43:22.438Z,26.80
2022-07-28T21:45:50.451Z,26.80
2022-07-28T21:48:20.050Z,26.80
2022-07-28T21:50:49.301Z,26.80
2022-07-28T21:53:17.535Z,26.80
2022-07-28T21:55:45.997Z,26.80
2022-07-28T21:58:14.483Z,26.90
2022-07-28T22:00:42.612Z,26.80
2022-07-28T22:03:10.526Z,26.80
2022-07-28T22:05:38.850Z,26.80
2022-07-28T22:08:09.292Z,26.80
2022-07-28T22:10:37.292Z,26.80
2022-07-28T22:13:05.227Z,26.90
2022-07-28T22:15:33.115Z,26.90
2022-07-28T22:18:01.041Z,26.80
2022-07-28T22:20:29.007Z,26.90
2022-07-28T22:22:57.629Z,26.90
2022-07-28T22:25:26.984Z,26.90
2022-07-28T22:27:54.970Z,26.90
2022-07-28T22:30:22.861Z,26.80
2022-07-28T22:32:50.774Z,26.90
2022-07-28T22:35:18.785Z,26.90
2022-07-28T22:37:47.082Z,26.90
2022-07-28T22:40:16.085Z,26.90
2022-07-28T22:42:45.557Z,26.90
2022-07-28T22:45:13.618Z,26.90
2022-07-28T22:47:41.791Z,26.90
2022-07-28T22:50:10.615Z,26.90
2022-07-28T22:52:38.648Z,26.90
2022-07-28T22:55:07.978Z,26.90
2022-07-28T22:57:35.860Z,26.90
2022-07-28T23:00:06.189Z,26.90
2022-07-28T23:02:35.569Z,26.90
2022-07-28T23:05:05.771Z,26.90
2022-07-28T23:07:50.927Z,26.90
2022-07-28T23:10:19.425Z,26.90
2022-07-28T23:12:47.283Z,26.90
2022-07-28T23:15:16.545Z,26.90
2022-07-28T23:17:44.494Z,26.90
2022-07-28T23:20:12.955Z,26.90
2022-07-28T23:22:40.871Z,26.90
2022-07-28T23:25:09.685Z,26.90
2022-07-28T23:27:37.626Z,26.90
2022-07-28T23:30:06.567Z,26.80
2022-07-28T23:32:35.812Z,26.90
2022-07-28T23:35:03.714Z,26.90
2022-07-28T23:37:34.285Z,26.90
2022-07-28T23:40:02.206Z,26.90
2022-07-28T23:42:30.129Z,26.90
2022-07-28T23:44:58.065Z,26.90
2022-07-28T23:47:25.909Z,26.90
2022-07-28T23:49:55.490Z,26.90
2022-07-28T23:52:23.430Z,26.90
2022-07-28T23:54:51.359Z,26.90
2022-07-28T23:57:19.268Z,26.90
2022-07-28T23:59:47.189Z,26.90
